sensor_id;sensor_type;location;lat;lon;timestamp;temperature;humidity
54202;DHT22;40108;53.152;5.844;2022-12-18T00:02:03;-3273.70;97.30
54202;DHT22;40108;53.152;5.844;2022-12-18T00:04:29;-3273.60;97.30
54202;DHT22;40108;53.152;5.844;2022-12-18T00:07:03;-3273.70;97.30
54202;DHT22;40108;53.152;5.844;2022-12-18T00:09:39;-3273.60;97.30
54202;DHT22;40108;53.152;5.844;2022-12-18T00:12:07;-3273.60;97.30
54202;DHT22;40108;53.152;5.844;2022-12-18T00:14:36;-3273.60;97.30
54202;DHT22;40108;53.152;5.844;2022-12-18T00:17:02;-3273.60;97.30
54202;DHT22;40108;53.152;5.844;2022-12-18T00:19:28;-3273.50;97.30
54202;DHT22;40108;53.152;5.844;2022-12-18T00:21:54;-3273.50;97.30
54202;DHT22;40108;53.152;5.844;2022-12-18T00:24:23;-3273.50;97.30
54202;DHT22;40108;53.152;5.844;2022-12-18T00:26:52;-3273.50;97.20
54202;DHT22;40108;53.152;5.844;2022-12-18T00:29:17;-3273.40;97.20
54202;DHT22;40108;53.152;5.844;2022-12-18T00:31:43;-3273.50;97.20
54202;DHT22;40108;53.152;5.844;2022-12-18T00:34:11;-3273.40;97.20
54202;DHT22;40108;53.152;5.844;2022-12-18T00:36:40;-3273.50;97.30
54202;DHT22;40108;53.152;5.844;2022-12-18T00:39:10;-3273.50;97.30
54202;DHT22;40108;53.152;5.844;2022-12-18T00:41:36;-3273.40;97.30
54202;DHT22;40108;53.152;5.844;2022-12-18T00:44:20;-3273.40;97.20
54202;DHT22;40108;53.152;5.844;2022-12-18T00:46:50;-3273.40;97.30
54202;DHT22;40108;53.152;5.844;2022-12-18T00:49:22;-3273.40;97.30
54202;DHT22;40108;53.152;5.844;2022-12-18T00:51:50;-3273.40;97.30
54202;DHT22;40108;53.152;5.844;2022-12-18T00:54:16;-3273.40;97.20
54202;DHT22;40108;53.152;5.844;2022-12-18T00:56:43;-3273.40;97.20
54202;DHT22;40108;53.152;5.844;2022-12-18T00:59:11;-3273.40;97.30
54202;DHT22;40108;53.152;5.844;2022-12-18T01:01:37;-3273.40;97.30
54202;DHT22;40108;53.152;5.844;2022-12-18T01:04:08;-3273.40;97.30
54202;DHT22;40108;53.152;5.844;2022-12-18T01:06:34;-3273.40;97.30
54202;DHT22;40108;53.152;5.844;2022-12-18T01:09:00;-3273.40;97.20
54202;DHT22;40108;53.152;5.844;2022-12-18T01:11:26;-3273.40;97.20
54202;DHT22;40108;53.152;5.844;2022-12-18T01:13:54;-3273.40;97.20
54202;DHT22;40108;53.152;5.844;2022-12-18T01:16:20;-3273.40;97.20
54202;DHT22;40108;53.152;5.844;2022-12-18T01:18:54;-3273.40;97.20
54202;DHT22;40108;53.152;5.844;2022-12-18T01:21:23;-3273.40;97.20
54202;DHT22;40108;53.152;5.844;2022-12-18T01:23:54;-3273.40;97.20
54202;DHT22;40108;53.152;5.844;2022-12-18T01:26:20;-3273.30;97.10
54202;DHT22;40108;53.152;5.844;2022-12-18T01:28:49;-3273.20;97.10
54202;DHT22;40108;53.152;5.844;2022-12-18T01:31:23;-3273.20;97.10
54202;DHT22;40108;53.152;5.844;2022-12-18T01:33:50;-3273.20;97.10
54202;DHT22;40108;53.152;5.844;2022-12-18T01:36:23;-3273.20;97.00
54202;DHT22;40108;53.152;5.844;2022-12-18T01:39:00;-3273.20;97.10
54202;DHT22;40108;53.152;5.844;2022-12-18T01:41:31;-3273.20;97.00
54202;DHT22;40108;53.152;5.844;2022-12-18T01:47:26;-3273.20;97.10
54202;DHT22;40108;53.152;5.844;2022-12-18T01:49:56;-3273.20;97.10
54202;DHT22;40108;53.152;5.844;2022-12-18T01:52:30;-3273.20;97.10
54202;DHT22;40108;53.152;5.844;2022-12-18T01:55:03;-3273.20;97.00
54202;DHT22;40108;53.152;5.844;2022-12-18T01:57:31;-3273.20;97.00
54202;DHT22;40108;53.152;5.844;2022-12-18T02:00:05;-3273.20;97.00
54202;DHT22;40108;53.152;5.844;2022-12-18T02:02:32;-3273.20;97.00
54202;DHT22;40108;53.152;5.844;2022-12-18T02:05:02;-3273.20;97.00
54202;DHT22;40108;53.152;5.844;2022-12-18T02:07:42;-3273.20;96.90
54202;DHT22;40108;53.152;5.844;2022-12-18T02:10:17;-3273.10;96.90
54202;DHT22;40108;53.152;5.844;2022-12-18T02:15:51;-3273.10;96.90
54202;DHT22;40108;53.152;5.844;2022-12-18T02:18:21;-3273.10;96.90
54202;DHT22;40108;53.152;5.844;2022-12-18T02:21:04;-3273.00;96.90
54202;DHT22;40108;53.152;5.844;2022-12-18T02:24:15;-3273.00;96.80
54202;DHT22;40108;53.152;5.844;2022-12-18T02:26:53;-3272.90;96.90
54202;DHT22;40108;53.152;5.844;2022-12-18T02:29:28;-3272.90;96.80
54202;DHT22;40108;53.152;5.844;2022-12-18T02:32:00;-3272.90;96.80
54202;DHT22;40108;53.152;5.844;2022-12-18T02:34:31;-3272.90;96.80
54202;DHT22;40108;53.152;5.844;2022-12-18T02:37:00;-3272.90;96.80
54202;DHT22;40108;53.152;5.844;2022-12-18T02:39:31;-3272.80;96.80
54202;DHT22;40108;53.152;5.844;2022-12-18T02:42:00;-3272.80;96.80
54202;DHT22;40108;53.152;5.844;2022-12-18T02:44:34;-3272.80;96.90
54202;DHT22;40108;53.152;5.844;2022-12-18T02:47:01;-3272.70;96.80
54202;DHT22;40108;53.152;5.844;2022-12-18T02:55:00;-3272.60;96.70
54202;DHT22;40108;53.152;5.844;2022-12-18T02:57:53;-3272.60;96.70
54202;DHT22;40108;53.152;5.844;2022-12-18T03:00:43;-3272.50;96.70
54202;DHT22;40108;53.152;5.844;2022-12-18T03:03:26;-3272.50;96.60
54202;DHT22;40108;53.152;5.844;2022-12-18T03:06:08;-3272.40;96.60
54202;DHT22;40108;53.152;5.844;2022-12-18T03:08:44;-3272.30;96.50
54202;DHT22;40108;53.152;5.844;2022-12-18T03:11:18;-3272.30;96.50
54202;DHT22;40108;53.152;5.844;2022-12-18T03:14:09;-3272.20;96.40
54202;DHT22;40108;53.152;5.844;2022-12-18T03:16:37;-3272.20;96.40
54202;DHT22;40108;53.152;5.844;2022-12-18T03:19:16;-3272.20;96.50
54202;DHT22;40108;53.152;5.844;2022-12-18T03:21:47;-3272.20;96.50
54202;DHT22;40108;53.152;5.844;2022-12-18T03:24:14;-3272.20;96.60
54202;DHT22;40108;53.152;5.844;2022-12-18T03:26:44;-3272.20;96.60
54202;DHT22;40108;53.152;5.844;2022-12-18T03:29:21;-3272.20;96.70
54202;DHT22;40108;53.152;5.844;2022-12-18T03:31:53;-3272.20;96.70
54202;DHT22;40108;53.152;5.844;2022-12-18T03:34:24;-3272.20;96.70
54202;DHT22;40108;53.152;5.844;2022-12-18T03:36:55;-3272.20;96.60
54202;DHT22;40108;53.152;5.844;2022-12-18T03:39:20;-3272.20;96.60
54202;DHT22;40108;53.152;5.844;2022-12-18T03:44:39;-3272.20;96.70
54202;DHT22;40108;53.152;5.844;2022-12-18T03:50:10;-3272.20;96.70
54202;DHT22;40108;53.152;5.844;2022-12-18T03:52:46;-3272.20;96.70
54202;DHT22;40108;53.152;5.844;2022-12-18T03:55:13;-3272.10;96.70
54202;DHT22;40108;53.152;5.844;2022-12-18T03:57:40;-3272.10;96.70
54202;DHT22;40108;53.152;5.844;2022-12-18T04:00:10;-3272.10;96.70
54202;DHT22;40108;53.152;5.844;2022-12-18T04:02:40;-3272.10;96.60
54202;DHT22;40108;53.152;5.844;2022-12-18T04:05:08;-3272.00;96.60
54202;DHT22;40108;53.152;5.844;2022-12-18T04:07:38;-3272.00;96.60
54202;DHT22;40108;53.152;5.844;2022-12-18T04:10:07;-3271.90;96.60
54202;DHT22;40108;53.152;5.844;2022-12-18T04:12:33;-3271.90;96.50
54202;DHT22;40108;53.152;5.844;2022-12-18T04:15:01;-3271.90;96.50
54202;DHT22;40108;53.152;5.844;2022-12-18T04:17:27;-3271.90;96.50
54202;DHT22;40108;53.152;5.844;2022-12-18T04:19:53;-3271.80;96.50
54202;DHT22;40108;53.152;5.844;2022-12-18T04:22:19;-3271.70;96.40
54202;DHT22;40108;53.152;5.844;2022-12-18T04:24:44;-3271.70;96.40
54202;DHT22;40108;53.152;5.844;2022-12-18T04:27:10;-3271.70;96.40
54202;DHT22;40108;53.152;5.844;2022-12-18T04:29:36;-3271.70;96.40
54202;DHT22;40108;53.152;5.844;2022-12-18T04:32:04;-3271.70;96.40
54202;DHT22;40108;53.152;5.844;2022-12-18T04:34:32;-3271.60;96.40
54202;DHT22;40108;53.152;5.844;2022-12-18T04:37:00;-3271.60;96.40
54202;DHT22;40108;53.152;5.844;2022-12-18T04:39:26;-3271.60;96.30
54202;DHT22;40108;53.152;5.844;2022-12-18T04:41:52;-3271.50;96.30
54202;DHT22;40108;53.152;5.844;2022-12-18T04:44:18;-3271.50;96.20
54202;DHT22;40108;53.152;5.844;2022-12-18T04:46:44;-3271.40;96.20
54202;DHT22;40108;53.152;5.844;2022-12-18T04:49:12;-3271.40;96.20
54202;DHT22;40108;53.152;5.844;2022-12-18T04:51:38;-3271.40;96.20
54202;DHT22;40108;53.152;5.844;2022-12-18T04:54:04;-3271.30;96.20
54202;DHT22;40108;53.152;5.844;2022-12-18T04:56:31;-3271.30;96.20
54202;DHT22;40108;53.152;5.844;2022-12-18T04:58:57;-3271.30;96.20
54202;DHT22;40108;53.152;5.844;2022-12-18T05:01:23;-3271.30;96.10
54202;DHT22;40108;53.152;5.844;2022-12-18T05:03:50;-3271.20;96.10
54202;DHT22;40108;53.152;5.844;2022-12-18T05:06:16;-3271.20;96.00
54202;DHT22;40108;53.152;5.844;2022-12-18T05:08:44;-3271.20;96.10
54202;DHT22;40108;53.152;5.844;2022-12-18T05:11:12;-3271.10;96.00
54202;DHT22;40108;53.152;5.844;2022-12-18T05:13:44;-3271.10;96.00
54202;DHT22;40108;53.152;5.844;2022-12-18T05:16:10;-3271.10;96.00
54202;DHT22;40108;53.152;5.844;2022-12-18T05:18:36;-3271.10;95.90
54202;DHT22;40108;53.152;5.844;2022-12-18T05:21:02;-3271.00;95.90
54202;DHT22;40108;53.152;5.844;2022-12-18T05:23:28;-3271.00;95.90
54202;DHT22;40108;53.152;5.844;2022-12-18T05:25:56;-3271.00;95.90
54202;DHT22;40108;53.152;5.844;2022-12-18T05:28:26;-3271.00;95.90
54202;DHT22;40108;53.152;5.844;2022-12-18T05:30:55;-3271.00;95.80
54202;DHT22;40108;53.152;5.844;2022-12-18T05:33:23;-3271.00;95.80
54202;DHT22;40108;53.152;5.844;2022-12-18T05:35:57;-3270.90;95.80
54202;DHT22;40108;53.152;5.844;2022-12-18T05:38:25;-3270.90;95.70
54202;DHT22;40108;53.152;5.844;2022-12-18T05:40:51;-3270.90;95.70
54202;DHT22;40108;53.152;5.844;2022-12-18T05:43:18;-3270.90;95.70
54202;DHT22;40108;53.152;5.844;2022-12-18T05:45:45;-3270.90;95.70
54202;DHT22;40108;53.152;5.844;2022-12-18T05:48:12;-3270.90;95.70
54202;DHT22;40108;53.152;5.844;2022-12-18T05:50:39;-3270.80;95.60
54202;DHT22;40108;53.152;5.844;2022-12-18T05:53:05;-3270.80;95.60
54202;DHT22;40108;53.152;5.844;2022-12-18T05:55:35;-3270.80;95.60
54202;DHT22;40108;53.152;5.844;2022-12-18T05:58:03;-3270.80;95.50
54202;DHT22;40108;53.152;5.844;2022-12-18T06:00:30;-3270.80;95.50
54202;DHT22;40108;53.152;5.844;2022-12-18T06:02:55;-3270.70;95.50
54202;DHT22;40108;53.152;5.844;2022-12-18T06:05:21;-3270.70;95.40
54202;DHT22;40108;53.152;5.844;2022-12-18T06:07:47;-3270.80;95.40
54202;DHT22;40108;53.152;5.844;2022-12-18T06:10:13;-3270.80;95.40
54202;DHT22;40108;53.152;5.844;2022-12-18T06:12:39;-3270.70;95.30
54202;DHT22;40108;53.152;5.844;2022-12-18T06:15:05;-3270.70;95.30
54202;DHT22;40108;53.152;5.844;2022-12-18T06:17:32;-3270.70;95.20
54202;DHT22;40108;53.152;5.844;2022-12-18T06:19:58;-3270.60;95.20
54202;DHT22;40108;53.152;5.844;2022-12-18T06:22:24;-3270.60;95.20
54202;DHT22;40108;53.152;5.844;2022-12-18T06:24:50;-3270.70;95.20
54202;DHT22;40108;53.152;5.844;2022-12-18T06:27:16;-3270.70;95.20
54202;DHT22;40108;53.152;5.844;2022-12-18T06:29:42;-3270.60;95.10
54202;DHT22;40108;53.152;5.844;2022-12-18T06:32:08;-3270.60;95.10
54202;DHT22;40108;53.152;5.844;2022-12-18T06:34:36;-3270.60;95.10
54202;DHT22;40108;53.152;5.844;2022-12-18T06:37:02;-3270.50;95.10
54202;DHT22;40108;53.152;5.844;2022-12-18T06:39:28;-3270.50;95.10
54202;DHT22;40108;53.152;5.844;2022-12-18T06:41:54;-3270.50;95.00
54202;DHT22;40108;53.152;5.844;2022-12-18T06:44:19;-3270.50;95.00
54202;DHT22;40108;53.152;5.844;2022-12-18T06:46:45;-3270.50;95.00
54202;DHT22;40108;53.152;5.844;2022-12-18T06:49:11;-3270.40;95.00
54202;DHT22;40108;53.152;5.844;2022-12-18T06:51:37;-3270.40;94.90
54202;DHT22;40108;53.152;5.844;2022-12-18T06:54:03;-3270.40;94.90
54202;DHT22;40108;53.152;5.844;2022-12-18T06:56:29;-3270.40;94.90
54202;DHT22;40108;53.152;5.844;2022-12-18T06:58:55;-3270.40;94.90
54202;DHT22;40108;53.152;5.844;2022-12-18T07:01:22;-3270.40;94.80
54202;DHT22;40108;53.152;5.844;2022-12-18T07:03:55;-3270.40;94.80
54202;DHT22;40108;53.152;5.844;2022-12-18T07:06:23;-3270.30;94.70
54202;DHT22;40108;53.152;5.844;2022-12-18T07:08:50;-3270.40;94.70
54202;DHT22;40108;53.152;5.844;2022-12-18T07:11:17;-3270.40;94.70
54202;DHT22;40108;53.152;5.844;2022-12-18T07:13:44;-3270.30;94.60
54202;DHT22;40108;53.152;5.844;2022-12-18T07:16:13;-3270.40;94.60
54202;DHT22;40108;53.152;5.844;2022-12-18T07:18:39;-3270.40;94.60
54202;DHT22;40108;53.152;5.844;2022-12-18T07:21:07;-3270.40;94.50
54202;DHT22;40108;53.152;5.844;2022-12-18T07:23:34;-3270.50;94.50
54202;DHT22;40108;53.152;5.844;2022-12-18T07:26:05;-3270.40;94.40
54202;DHT22;40108;53.152;5.844;2022-12-18T07:28:34;-3270.50;94.40
54202;DHT22;40108;53.152;5.844;2022-12-18T07:31:06;-3270.50;94.40
54202;DHT22;40108;53.152;5.844;2022-12-18T07:33:33;-3270.50;94.30
54202;DHT22;40108;53.152;5.844;2022-12-18T07:36:01;-3270.50;94.20
54202;DHT22;40108;53.152;5.844;2022-12-18T07:38:30;-3270.60;94.20
54202;DHT22;40108;53.152;5.844;2022-12-18T07:41:04;-3270.60;94.20
54202;DHT22;40108;53.152;5.844;2022-12-18T07:43:30;-3270.60;94.10
54202;DHT22;40108;53.152;5.844;2022-12-18T07:45:56;-3270.60;94.10
54202;DHT22;40108;53.152;5.844;2022-12-18T07:48:22;-3270.70;94.00
54202;DHT22;40108;53.152;5.844;2022-12-18T07:50:48;-3270.70;94.00
54202;DHT22;40108;53.152;5.844;2022-12-18T07:53:14;-3270.80;94.00
54202;DHT22;40108;53.152;5.844;2022-12-18T07:55:42;-3270.80;93.90
54202;DHT22;40108;53.152;5.844;2022-12-18T07:58:08;-3270.80;93.90
54202;DHT22;40108;53.152;5.844;2022-12-18T08:00:34;-3270.80;93.90
54202;DHT22;40108;53.152;5.844;2022-12-18T08:03:01;-3270.80;93.90
54202;DHT22;40108;53.152;5.844;2022-12-18T08:05:27;-3270.80;93.80
54202;DHT22;40108;53.152;5.844;2022-12-18T08:07:53;-3270.90;93.80
54202;DHT22;40108;53.152;5.844;2022-12-18T08:10:20;-3270.90;93.80
54202;DHT22;40108;53.152;5.844;2022-12-18T08:12:49;-3270.90;93.80
54202;DHT22;40108;53.152;5.844;2022-12-18T08:15:15;-3270.90;93.80
54202;DHT22;40108;53.152;5.844;2022-12-18T08:17:41;-3270.90;93.80
54202;DHT22;40108;53.152;5.844;2022-12-18T08:20:10;-3270.90;93.80
54202;DHT22;40108;53.152;5.844;2022-12-18T08:22:36;-3270.90;93.80
54202;DHT22;40108;53.152;5.844;2022-12-18T08:25:03;-3271.00;93.70
54202;DHT22;40108;53.152;5.844;2022-12-18T08:27:31;-3271.00;93.80
54202;DHT22;40108;53.152;5.844;2022-12-18T08:29:57;-3271.10;93.80
54202;DHT22;40108;53.152;5.844;2022-12-18T08:32:24;-3271.10;93.80
54202;DHT22;40108;53.152;5.844;2022-12-18T08:34:51;-3271.20;93.70
54202;DHT22;40108;53.152;5.844;2022-12-18T08:37:17;-3271.20;93.60
54202;DHT22;40108;53.152;5.844;2022-12-18T08:39:43;-3271.30;93.60
54202;DHT22;40108;53.152;5.844;2022-12-18T08:42:08;-3271.40;93.60
54202;DHT22;40108;53.152;5.844;2022-12-18T08:44:57;-3271.40;93.60
54202;DHT22;40108;53.152;5.844;2022-12-18T08:47:23;-3271.50;93.50
54202;DHT22;40108;53.152;5.844;2022-12-18T08:49:51;-3271.60;93.50
54202;DHT22;40108;53.152;5.844;2022-12-18T08:52:25;-3271.70;93.40
54202;DHT22;40108;53.152;5.844;2022-12-18T08:54:56;-3271.70;93.40
54202;DHT22;40108;53.152;5.844;2022-12-18T08:57:22;-3271.80;93.40
54202;DHT22;40108;53.152;5.844;2022-12-18T08:59:48;-3271.90;93.40
54202;DHT22;40108;53.152;5.844;2022-12-18T09:02:23;-3272.00;93.40
54202;DHT22;40108;53.152;5.844;2022-12-18T09:04:52;-3272.10;93.30
54202;DHT22;40108;53.152;5.844;2022-12-18T09:07:18;-3272.10;93.20
54202;DHT22;40108;53.152;5.844;2022-12-18T09:09:46;-3272.20;93.20
54202;DHT22;40108;53.152;5.844;2022-12-18T09:12:15;-3272.20;93.20
54202;DHT22;40108;53.152;5.844;2022-12-18T09:14:41;-3272.30;93.20
54202;DHT22;40108;53.152;5.844;2022-12-18T09:17:06;-3272.40;93.20
54202;DHT22;40108;53.152;5.844;2022-12-18T09:19:41;-3272.50;93.10
54202;DHT22;40108;53.152;5.844;2022-12-18T09:22:19;-3272.50;93.00
54202;DHT22;40108;53.152;5.844;2022-12-18T09:24:51;-3272.70;93.10
54202;DHT22;40108;53.152;5.844;2022-12-18T09:27:17;-3272.80;93.00
54202;DHT22;40108;53.152;5.844;2022-12-18T09:29:42;-3272.80;92.90
54202;DHT22;40108;53.152;5.844;2022-12-18T09:32:08;-3273.00;92.90
54202;DHT22;40108;53.152;5.844;2022-12-18T09:34:35;-3273.10;93.00
54202;DHT22;40108;53.152;5.844;2022-12-18T09:37:02;-3273.20;92.90
54202;DHT22;40108;53.152;5.844;2022-12-18T09:39:27;-3273.20;92.70
54202;DHT22;40108;53.152;5.844;2022-12-18T09:41:57;-3273.30;92.60
54202;DHT22;40108;53.152;5.844;2022-12-18T09:44:41;-3273.40;92.50
54202;DHT22;40108;53.152;5.844;2022-12-18T09:49:47;-3273.70;92.40
54202;DHT22;40108;53.152;5.844;2022-12-18T09:52:39;-3273.80;92.10
54202;DHT22;40108;53.152;5.844;2022-12-18T10:00:54;-3274.30;91.40
54202;DHT22;40108;53.152;5.844;2022-12-18T10:03:21;-3274.40;91.00
54202;DHT22;40108;53.152;5.844;2022-12-18T10:06:54;-3274.40;90.80
54202;DHT22;40108;53.152;5.844;2022-12-18T10:09:07;-3274.40;90.20
54202;DHT22;40108;53.152;5.844;2022-12-18T10:14:33;-3274.30;89.80
54202;DHT22;40108;53.152;5.844;2022-12-18T10:25:12;-3274.30;89.90
54202;DHT22;40108;53.152;5.844;2022-12-18T10:27:46;-3274.30;89.80
54202;DHT22;40108;53.152;5.844;2022-12-18T10:30:15;-3274.40;89.80
54202;DHT22;40108;53.152;5.844;2022-12-18T10:32:49;-3274.40;89.70
54202;DHT22;40108;53.152;5.844;2022-12-18T10:35:25;-3274.40;89.80
54202;DHT22;40108;53.152;5.844;2022-12-18T10:41:26;-3274.40;89.70
54202;DHT22;40108;53.152;5.844;2022-12-18T10:44:36;-3274.40;89.70
54202;DHT22;40108;53.152;5.844;2022-12-18T10:47:19;-3274.40;89.60
54202;DHT22;40108;53.152;5.844;2022-12-18T10:49:50;-3274.40;89.60
54202;DHT22;40108;53.152;5.844;2022-12-18T10:52:25;-3274.50;89.70
54202;DHT22;40108;53.152;5.844;2022-12-18T10:55:01;-3274.50;89.60
54202;DHT22;40108;53.152;5.844;2022-12-18T10:57:36;-3274.60;89.50
54202;DHT22;40108;53.152;5.844;2022-12-18T11:02:45;-3274.70;89.00
54202;DHT22;40108;53.152;5.844;2022-12-18T11:05:39;-3274.70;88.90
54202;DHT22;40108;53.152;5.844;2022-12-18T11:08:18;-3274.80;88.80
54202;DHT22;40108;53.152;5.844;2022-12-18T11:10:48;-3274.90;88.20
54202;DHT22;40108;53.152;5.844;2022-12-18T11:13:20;-3274.90;88.10
54202;DHT22;40108;53.152;5.844;2022-12-18T11:15:46;-3274.90;88.30
54202;DHT22;40108;53.152;5.844;2022-12-18T11:18:20;-3275.00;88.30
54202;DHT22;40108;53.152;5.844;2022-12-18T11:20:53;-3275.00;88.10
54202;DHT22;40108;53.152;5.844;2022-12-18T11:23:22;-3275.10;87.80
54202;DHT22;40108;53.152;5.844;2022-12-18T11:26:01;-3275.10;87.80
54202;DHT22;40108;53.152;5.844;2022-12-18T11:28:38;-3275.00;87.30
54202;DHT22;40108;53.152;5.844;2022-12-18T11:33:44;-3275.10;86.80
54202;DHT22;40108;53.152;5.844;2022-12-18T11:36:12;-3275.10;87.00
54202;DHT22;40108;53.152;5.844;2022-12-18T11:38:42;-3275.00;87.10
54202;DHT22;40108;53.152;5.844;2022-12-18T11:41:23;-3275.00;87.20
54202;DHT22;40108;53.152;5.844;2022-12-18T11:44:14;-3275.00;87.00
54202;DHT22;40108;53.152;5.844;2022-12-18T11:46:55;-3275.00;86.90
54202;DHT22;40108;53.152;5.844;2022-12-18T11:49:35;-3275.00;86.90
54202;DHT22;40108;53.152;5.844;2022-12-18T11:52:23;-3275.00;87.00
54202;DHT22;40108;53.152;5.844;2022-12-18T11:55:00;-3275.00;87.00
54202;DHT22;40108;53.152;5.844;2022-12-18T11:57:59;-3275.00;87.10
54202;DHT22;40108;53.152;5.844;2022-12-18T12:00:37;-3275.00;86.70
54202;DHT22;40108;53.152;5.844;2022-12-18T12:03:38;-3275.00;86.50
54202;DHT22;40108;53.152;5.844;2022-12-18T12:06:17;-3275.00;86.50
54202;DHT22;40108;53.152;5.844;2022-12-18T12:12:30;-3275.00;86.70
54202;DHT22;40108;53.152;5.844;2022-12-18T12:15:25;-3275.00;86.80
54202;DHT22;40108;53.152;5.844;2022-12-18T12:18:04;-3275.10;86.80
54202;DHT22;40108;53.152;5.844;2022-12-18T12:21:11;-3275.00;86.50
54202;DHT22;40108;53.152;5.844;2022-12-18T12:27:34;-3275.10;86.30
54202;DHT22;40108;53.152;5.844;2022-12-18T12:38:39;-3275.20;85.90
54202;DHT22;40108;53.152;5.844;2022-12-18T12:41:12;-3275.30;85.90
54202;DHT22;40108;53.152;5.844;2022-12-18T12:44:04;-3275.30;85.90
54202;DHT22;40108;53.152;5.844;2022-12-18T12:46:37;-3275.30;85.70
54202;DHT22;40108;53.152;5.844;2022-12-18T12:49:11;-3275.40;85.90
54202;DHT22;40108;53.152;5.844;2022-12-18T12:51:45;-3275.30;85.70
54202;DHT22;40108;53.152;5.844;2022-12-18T12:54:21;-3275.30;85.70
54202;DHT22;40108;53.152;5.844;2022-12-18T12:57:05;-3275.40;86.10
54202;DHT22;40108;53.152;5.844;2022-12-18T12:59:46;-3275.30;86.00
54202;DHT22;40108;53.152;5.844;2022-12-18T13:02:50;-3275.40;86.00
54202;DHT22;40108;53.152;5.844;2022-12-18T13:05:29;-3275.40;86.00
54202;DHT22;40108;53.152;5.844;2022-12-18T13:08:25;-3275.40;85.80
54202;DHT22;40108;53.152;5.844;2022-12-18T13:10:53;-3275.40;86.10
54202;DHT22;40108;53.152;5.844;2022-12-18T13:13:55;-3275.40;86.10
54202;DHT22;40108;53.152;5.844;2022-12-18T13:16:25;-3275.40;86.40
54202;DHT22;40108;53.152;5.844;2022-12-18T13:18:56;-3275.40;86.60
54202;DHT22;40108;53.152;5.844;2022-12-18T13:21:32;-3275.40;86.60
54202;DHT22;40108;53.152;5.844;2022-12-18T13:24:22;-3275.40;86.70
54202;DHT22;40108;53.152;5.844;2022-12-18T13:26:49;-3275.40;86.90
54202;DHT22;40108;53.152;5.844;2022-12-18T13:29:44;-3275.50;86.90
54202;DHT22;40108;53.152;5.844;2022-12-18T13:32:22;-3275.50;87.00
54202;DHT22;40108;53.152;5.844;2022-12-18T13:34:47;-3275.50;87.00
54202;DHT22;40108;53.152;5.844;2022-12-18T13:37:40;-3275.50;87.20
54202;DHT22;40108;53.152;5.844;2022-12-18T13:46:06;-3275.50;87.10
54202;DHT22;40108;53.152;5.844;2022-12-18T13:48:53;-3275.50;86.80
54202;DHT22;40108;53.152;5.844;2022-12-18T13:51:20;-3275.50;86.60
54202;DHT22;40108;53.152;5.844;2022-12-18T13:56:44;-3275.50;86.60
54202;DHT22;40108;53.152;5.844;2022-12-18T14:04:28;-3275.50;86.50
54202;DHT22;40108;53.152;5.844;2022-12-18T14:07:23;-3275.60;86.50
54202;DHT22;40108;53.152;5.844;2022-12-18T14:09:51;-3275.50;86.20
54202;DHT22;40108;53.152;5.844;2022-12-18T14:12:24;-3275.60;86.20
54202;DHT22;40108;53.152;5.844;2022-12-18T14:15:27;-3275.50;86.10
54202;DHT22;40108;53.152;5.844;2022-12-18T14:18:00;-3275.60;86.10
54202;DHT22;40108;53.152;5.844;2022-12-18T14:20:29;-3275.60;86.00
54202;DHT22;40108;53.152;5.844;2022-12-18T14:22:56;-3275.60;85.90
54202;DHT22;40108;53.152;5.844;2022-12-18T14:25:25;-3275.60;85.80
54202;DHT22;40108;53.152;5.844;2022-12-18T14:27:59;-3275.60;85.80
54202;DHT22;40108;53.152;5.844;2022-12-18T14:30:30;-3275.60;85.60
54202;DHT22;40108;53.152;5.844;2022-12-18T14:33:04;-3275.60;85.70
54202;DHT22;40108;53.152;5.844;2022-12-18T14:35:32;-3275.60;85.60
54202;DHT22;40108;53.152;5.844;2022-12-18T14:40:42;-3275.50;85.70
54202;DHT22;40108;53.152;5.844;2022-12-18T14:43:14;-3275.50;85.90
54202;DHT22;40108;53.152;5.844;2022-12-18T14:45:44;-3275.60;85.90
54202;DHT22;40108;53.152;5.844;2022-12-18T14:50:42;-3275.50;85.80
54202;DHT22;40108;53.152;5.844;2022-12-18T14:53:23;-3275.50;85.70
54202;DHT22;40108;53.152;5.844;2022-12-18T14:55:52;-3275.60;85.50
54202;DHT22;40108;53.152;5.844;2022-12-18T14:58:22;-3275.60;85.50
54202;DHT22;40108;53.152;5.844;2022-12-18T15:00:47;-3275.60;85.40
54202;DHT22;40108;53.152;5.844;2022-12-18T15:03:18;-3275.60;85.20
54202;DHT22;40108;53.152;5.844;2022-12-18T15:05:44;-3275.60;85.10
54202;DHT22;40108;53.152;5.844;2022-12-18T15:08:36;-3275.60;85.20
54202;DHT22;40108;53.152;5.844;2022-12-18T15:11:03;-3275.50;85.30
54202;DHT22;40108;53.152;5.844;2022-12-18T15:13:28;-3275.50;85.40
54202;DHT22;40108;53.152;5.844;2022-12-18T15:15:57;-3275.50;85.50
54202;DHT22;40108;53.152;5.844;2022-12-18T15:18:30;-3275.50;85.60
54202;DHT22;40108;53.152;5.844;2022-12-18T15:20:59;-3275.50;85.60
54202;DHT22;40108;53.152;5.844;2022-12-18T15:23:35;-3275.50;85.50
54202;DHT22;40108;53.152;5.844;2022-12-18T15:26:08;-3275.50;85.50
54202;DHT22;40108;53.152;5.844;2022-12-18T15:28:48;-3275.50;85.60
54202;DHT22;40108;53.152;5.844;2022-12-18T15:36:35;-3275.50;85.40
54202;DHT22;40108;53.152;5.844;2022-12-18T15:39:04;-3275.50;85.30
54202;DHT22;40108;53.152;5.844;2022-12-18T15:41:35;-3275.50;85.20
54202;DHT22;40108;53.152;5.844;2022-12-18T15:50:33;-3275.60;85.40
54202;DHT22;40108;53.152;5.844;2022-12-18T16:23:38;-3275.60;86.10
54202;DHT22;40108;53.152;5.844;2022-12-18T16:26:09;-3275.60;86.30
54202;DHT22;40108;53.152;5.844;2022-12-18T16:41:23;-3275.60;86.50
54202;DHT22;40108;53.152;5.844;2022-12-18T16:51:02;-3275.80;86.30
54202;DHT22;40108;53.152;5.844;2022-12-18T16:53:28;-3275.80;86.30
54202;DHT22;40108;53.152;5.844;2022-12-18T16:55:58;-3275.70;86.20
54202;DHT22;40108;53.152;5.844;2022-12-18T16:58:29;-3275.80;86.30
54202;DHT22;40108;53.152;5.844;2022-12-18T17:00:58;-3275.80;86.40
54202;DHT22;40108;53.152;5.844;2022-12-18T17:03:37;-3275.80;86.30
54202;DHT22;40108;53.152;5.844;2022-12-18T17:06:26;-3275.80;86.30
54202;DHT22;40108;53.152;5.844;2022-12-18T17:09:02;-3275.80;86.30
54202;DHT22;40108;53.152;5.844;2022-12-18T17:11:30;-3275.90;86.50
54202;DHT22;40108;53.152;5.844;2022-12-18T17:14:13;-3275.90;86.40
54202;DHT22;40108;53.152;5.844;2022-12-18T17:16:47;-3275.90;86.40
54202;DHT22;40108;53.152;5.844;2022-12-18T17:22:19;-3275.90;86.00
54202;DHT22;40108;53.152;5.844;2022-12-18T17:36:11;-3276.10;85.20
54202;DHT22;40108;53.152;5.844;2022-12-18T17:39:17;-3276.10;85.20
54202;DHT22;40108;53.152;5.844;2022-12-18T17:42:17;-3276.10;84.90
54202;DHT22;40108;53.152;5.844;2022-12-18T17:44:43;-3276.10;85.10
54202;DHT22;40108;53.152;5.844;2022-12-18T17:47:14;-3276.10;85.20
54202;DHT22;40108;53.152;5.844;2022-12-18T17:49:45;-3276.10;85.30
54202;DHT22;40108;53.152;5.844;2022-12-18T17:52:11;-3276.10;85.40
54202;DHT22;40108;53.152;5.844;2022-12-18T17:54:37;-3276.10;85.20